Evadale, TX (77615)

4:01 AM CDT on September 17, 2014 (GMT -0500)
Silsbee Meteorological Center | Change Station
CLOSE
Current Station
Personal Weather Station
Location: Silsbee, TX
Elevation: 79 ft
Nearby Weather Stations

Elev 79 ft 30.38 °N, 94.17 °W | Updated 5 seconds ago

Mostly Cloudy
Mostly Cloudy
71.6 °F
Feels Like 74 °F
N
0.0
Wind Variable Wind from SSW
Gusts 0.0 mph

Today
High -- | Low -- °F
--% Chance of Precip.
Yesterday
High -- | Low -- °F
Precip. -- in
7:01 AM 7:19 PM
Last Quarter, 38% visible
Pressure 29.95 in
Visibility 2.5 miles
Clouds Overcast 200 ft
Heat Index 74 °F
Dew Point 61 °F
Humidity 70%
Rainfall 0.00 in
Snow Depth Not available.
UV 0 out of 12
Pollen 8.70 out of 12
Air Quality Not available.
Flu Activity Not available.
METAR KBMT 170855Z AUTO 00000KT 2 1/2SM BR OVC002 24/24 A2995 RMK AO2 LTG DSNT SE T02350235

More Conditions Fewer Conditions

Pressure 29.95 in
Visibility 2.5 miles
Clouds Overcast 200 ft
Heat Index 74 °F
Dew Point 61 °F
Humidity 70%
Rainfall 0.00 in
Snow Depth Not available.
UV 0 out of 12
Pollen 8.70 out of 12
Air Quality Not available.
Flu Activity Not available.
METAR KBMT 170855Z AUTO 00000KT 2 1/2SM BR OVC002 24/24 A2995 RMK AO2 LTG DSNT SE T02350235

More Conditions Fewer Conditions

10-Day Weather Forecast

Almanac

Astronomy

Sep. 17, 2014 Rise Set
Actual Time 7:01 AM CDT 7:19 PM CDT
Civil Twilight 6:37 AM CDT 7:43 PM CDT
Nautical Twilight 6:09 AM CDT 8:11 PM CDT
Astronomical Twilight 5:41 AM CDT 8:39 PM CDT
Moon 1:20 AM CDT 3:12 PM CDT
Length of Visible Light 13h 05m
Length of Day
12h 17m
Tomorrow will be 1m 49s shorter.
Last Quarter, 38% of the Moon is Illuminated
Today
Last Quarter
Sep 24
New
Oct 1
First Quarter
Oct 8
Full
Oct 15
Last Quarter

Today's Extremes

State Highs State Lows

Community

WunderPhotos

Upload Photos

1,753,991 photos uploaded!

Nearby

Snow Depth

Station Depth Elevation
No new snow has been reported.

Earthquake Activity

City Distance Mag. Time & Date
No recent earthquake activity has been reported nearby.
Minimum magnitude displayed is 2.5.

Coastal Water Temperatures

Place Temperature
Sabine Pass North, TX 82.0 °F
Port Arthur, TX 84.0 °F
Calcasieu Pass, LA 82.9 °F
Rollover Pass, TX 82.0 °F
Lake Charles, LA 84.0 °F
Galveston Bay (North Jetty), TX 84.0 °F

Nearby Weather Stations